Time;durP1;ratioP1;P1;durP2;ratioP2;P2;SDS_P1;SDS_P2;PMS_P1;PMS_P2;Temp;Humidity;BMP_temperature;BMP_pressure;BME280_temperature;BME280_humidity;BME280_pressure;Samples;Min_cycle;Max_cycle;Signal;HPM_P1;HPM_P2
2021/08/30 00:00:10;;;;;;;6.28;5.18;;;19.80;72.50;;;;;;5033914;28;20569;-82
2021/08/30 00:02:36;;;;;;;7.82;5.95;;;19.80;72.40;;;;;;5034130;28;20521;-83
2021/08/30 00:05:04;;;;;;;6.90;5.43;;;19.80;72.40;;;;;;5049544;28;20217;-81
2021/08/30 00:07:30;;;;;;;9.38;5.75;;;19.90;72.50;;;;;;5034634;28;20231;-80
2021/08/30 00:09:56;;;;;;;6.20;4.93;;;19.80;72.50;;;;;;5034281;28;20685;-79
2021/08/30 00:12:22;;;;;;;6.63;5.13;;;19.80;72.40;;;;;;5051254;28;20635;-81
2021/08/30 00:14:47;;;;;;;8.48;5.78;;;19.80;72.40;;;;;;5033336;28;20155;-79
2021/08/30 00:17:13;;;;;;;7.70;5.85;;;19.80;72.40;;;;;;5035624;28;20208;-81
2021/08/30 00:19:39;;;;;;;6.55;5.38;;;19.80;72.40;;;;;;5049835;28;20632;-85
2021/08/30 00:22:05;;;;;;;6.55;5.40;;;19.80;72.50;;;;;;5035374;28;20163;-80
2021/08/30 00:24:31;;;;;;;6.60;5.25;;;19.80;72.50;;;;;;5034950;28;20159;-81
2021/08/30 00:26:57;;;;;;;6.22;5.18;;;19.80;72.40;;;;;;5034768;28;20533;-84
2021/08/30 00:29:26;;;;;;;7.72;5.68;;;19.80;72.40;;;;;;5033862;28;20210;-82
2021/08/30 00:31:53;;;;;;;7.28;5.13;;;19.90;72.40;;;;;;5034629;28;20201;-83
2021/08/30 00:34:19;;;;;;;6.63;5.18;;;19.80;72.50;;;;;;5033788;28;20167;-84
2021/08/30 00:36:45;;;;;;;6.72;5.38;;;19.80;72.40;;;;;;5049474;28;20606;-81
2021/08/30 00:39:11;;;;;;;6.97;5.53;;;19.70;72.40;;;;;;5034187;28;20162;-80
2021/08/30 00:41:37;;;;;;;8.05;5.30;;;19.80;72.50;;;;;;5049482;28;20175;-81
2021/08/30 00:44:03;;;;;;;7.18;5.65;;;19.80;72.60;;;;;;5049574;28;20182;-80
2021/08/30 00:46:29;;;;;;;7.05;5.60;;;19.80;72.50;;;;;;5049504;28;20236;-84
2021/08/30 00:48:55;;;;;;;7.15;5.50;;;19.80;72.50;;;;;;5032776;28;20610;-82
2021/08/30 00:51:21;;;;;;;8.00;5.78;;;19.80;72.50;;;;;;5032406;28;20194;-84
2021/08/30 00:53:47;;;;;;;6.72;5.05;;;19.80;72.50;;;;;;5033858;28;20147;-84
2021/08/30 00:56:14;;;;;;;6.38;5.32;;;19.80;72.50;;;;;;5034170;28;20159;-82
2021/08/30 00:58:40;;;;;;;7.85;5.60;;;19.80;72.70;;;;;;5032800;28;20163;-80
2021/08/30 01:01:12;;;;;;;7.63;5.95;;;19.80;72.50;;;;;;5033807;28;20233;-81
2021/08/30 01:03:38;;;;;;;7.15;5.65;;;19.80;72.60;;;;;;5031976;28;20599;-82
2021/08/30 01:06:12;;;;;;;6.70;4.97;;;19.80;72.70;;;;;;5033073;28;20190;-84
2021/08/30 01:08:40;;;;;;;7.35;5.57;;;19.80;72.50;;;;;;5033799;28;20609;-85
2021/08/30 01:11:08;;;;;;;6.40;5.20;;;19.80;72.50;;;;;;5032477;28;20236;-86
2021/08/30 01:13:55;;;;;;;8.20;4.97;;;19.80;72.70;;;;;;5036311;28;20170;-83
2021/08/30 01:16:22;;;;;;;6.97;5.57;;;19.80;72.70;;;;;;5037751;28;20194;-82
2021/08/30 01:18:49;;;;;;;6.35;5.25;;;19.80;72.60;;;;;;5036164;28;20159;-84
2021/08/30 01:21:24;;;;;;;7.30;5.63;;;19.70;72.70;;;;;;5036103;28;20159;-81
2021/08/30 01:23:56;;;;;;;7.68;5.78;;;19.70;72.40;;;;;;5035859;28;20170;-85
2021/08/30 01:26:24;;;;;;;8.20;6.15;;;19.80;72.50;;;;;;5035840;28;20155;-85
2021/08/30 01:29:14;;;;;;;8.15;5.88;;;19.80;72.60;;;;;;5019833;28;20173;-83
2021/08/30 01:32:06;;;;;;;6.43;5.53;;;19.80;72.50;;;;;;5037150;28;20201;-84
2021/08/30 01:34:33;;;;;;;8.60;6.15;;;19.80;72.60;;;;;;5052381;28;20580;-86
2021/08/30 01:36:59;;;;;;;7.32;5.30;;;19.80;72.60;;;;;;5035747;28;20645;-82
2021/08/30 01:39:32;;;;;;;7.15;5.45;;;19.80;72.50;;;;;;5035670;28;20151;-84
2021/08/30 01:41:59;;;;;;;6.03;5.40;;;19.80;72.50;;;;;;5036117;28;20250;-80
2021/08/30 01:44:25;;;;;;;8.40;6.10;;;19.80;72.50;;;;;;5035412;28;20297;-81
2021/08/30 01:46:51;;;;;;;7.05;5.53;;;19.80;72.70;;;;;;5036699;28;20151;-80
2021/08/30 01:49:17;;;;;;;7.45;5.35;;;19.70;72.50;;;;;;5051879;28;20181;-82
2021/08/30 01:51:43;;;;;;;7.35;5.63;;;19.80;72.40;;;;;;5035241;28;20186;-81
2021/08/30 01:54:09;;;;;;;7.43;5.38;;;19.70;72.40;;;;;;5052042;28;20182;-86
2021/08/30 01:56:35;;;;;;;6.82;5.38;;;19.70;72.50;;;;;;5051825;28;20166;-80
2021/08/30 02:01:42;;;;;;;7.85;6.00;;;19.80;72.30;;;;;;5035492;28;20628;-80
2021/08/30 02:04:08;;;;;;;6.03;5.07;;;19.80;72.40;;;;;;5035079;28;20182;-79
2021/08/30 02:06:35;;;;;;;7.82;5.93;;;19.80;72.30;;;;;;5036328;28;20155;-85
2021/08/30 02:09:00;;;;;;;7.57;5.88;;;19.80;72.40;;;;;;5034934;28;20248;-84
2021/08/30 02:11:31;;;;;;;7.72;5.85;;;19.80;72.30;;;;;;5018428;28;20709;-80
2021/08/30 02:13:58;;;;;;;8.20;5.80;;;19.70;72.40;;;;;;5034980;28;20147;-82
2021/08/30 02:16:25;;;;;;;6.50;5.10;;;19.80;72.40;;;;;;5036345;28;20151;-79
2021/08/30 02:19:27;;;;;;;6.30;5.25;;;19.80;72.40;;;;;;5034969;28;20151;-83
2021/08/30 02:21:56;;;;;;;6.47;5.25;;;19.80;72.40;;;;;;5051184;28;20628;-81
2021/08/30 02:24:45;;;;;;;7.25;5.63;;;19.70;72.40;;;;;;5033355;28;20158;-83
2021/08/30 02:27:23;;;;;;;6.00;5.10;;;19.70;72.40;;;;;;5034361;28;20194;-81
2021/08/30 02:29:50;;;;;;;6.57;5.43;;;19.80;72.30;;;;;;5035674;28;20520;-84
2021/08/30 02:32:17;;;;;;;6.80;5.30;;;19.80;72.30;;;;;;5034596;28;20607;-81
2021/08/30 02:34:47;;;;;;;7.00;5.60;;;19.80;72.30;;;;;;5034725;28;20649;-79
2021/08/30 02:37:13;;;;;;;8.27;5.65;;;19.80;72.10;;;;;;5035625;28;20151;-85
2021/08/30 02:39:39;;;;;;;6.78;5.28;;;19.70;73.10;;;;;;5034446;28;20563;-84
2021/08/30 02:42:09;;;;;;;7.50;5.32;;;19.80;72.30;;;;;;5035647;28;20159;-81
2021/08/30 02:44:35;;;;;;;6.82;5.50;;;19.80;72.10;;;;;;5050273;28;20409;-81
2021/08/30 02:47:01;;;;;;;6.80;5.20;;;19.80;72.20;;;;;;5034447;28;20155;-83
2021/08/30 02:49:27;;;;;;;7.28;5.53;;;19.80;72.40;;;;;;5035561;28;20162;-82
2021/08/30 02:51:54;;;;;;;6.57;5.40;;;19.70;72.30;;;;;;5034239;28;20191;-83
2021/08/30 02:54:20;;;;;;;7.43;5.75;;;19.70;72.40;;;;;;5034136;28;20155;-84
2021/08/30 02:56:46;;;;;;;6.43;5.57;;;19.70;72.10;;;;;;5034126;28;20167;-82
2021/08/30 02:59:17;;;;;;;7.40;5.72;;;19.70;72.00;;;;;;5050702;28;20628;-83
2021/08/30 03:01:43;;;;;;;7.85;5.10;;;19.80;72.30;;;;;;5033570;28;20525;-80
2021/08/30 03:04:12;;;;;;;6.40;5.32;;;19.80;72.30;;;;;;5050534;28;20159;-81
2021/08/30 03:06:38;;;;;;;7.70;5.90;;;19.70;72.30;;;;;;5050550;28;20615;-84
2021/08/30 03:09:03;;;;;;;7.88;5.35;;;19.70;72.40;;;;;;5033781;28;20235;-82
2021/08/30 03:11:29;;;;;;;7.10;5.40;;;19.80;72.50;;;;;;5033734;28;20186;-82
2021/08/30 03:13:57;;;;;;;7.43;5.60;;;19.70;72.40;;;;;;5033998;28;20155;-80
2021/08/30 03:16:27;;;;;;;7.93;5.88;;;19.70;72.40;;;;;;5050215;28;20190;-84
2021/08/30 03:18:53;;;;;;;6.75;5.20;;;19.70;72.50;;;;;;5032962;28;20190;-83
2021/08/30 03:21:19;;;;;;;8.38;6.05;;;19.70;72.40;;;;;;5033945;28;20172;-83
2021/08/30 03:23:45;;;;;;;6.90;5.72;;;19.70;72.50;;;;;;5033636;28;20530;-79
2021/08/30 03:26:15;;;;;;;7.55;5.25;;;19.70;72.60;;;;;;5033437;28;20163;-82
2021/08/30 03:28:41;;;;;;;7.28;5.30;;;19.70;72.70;;;;;;5032864;28;20193;-83
2021/08/30 03:31:07;;;;;;;6.28;5.07;;;19.70;72.60;;;;;;5033386;28;20191;-79
2021/08/30 03:33:33;;;;;;;6.95;5.55;;;19.70;72.50;;;;;;5049975;28;20201;-80
2021/08/30 03:35:59;;;;;;;6.80;5.50;;;19.70;72.50;;;;;;5032940;28;20166;-80
2021/08/30 03:38:25;;;;;;;8.27;5.68;;;19.60;72.40;;;;;;5033329;28;20170;-85
2021/08/30 03:40:52;;;;;;;6.40;5.13;;;19.70;72.50;;;;;;5033438;28;20694;-81
2021/08/30 03:43:18;;;;;;;6.60;5.45;;;19.70;72.50;;;;;;5033273;28;20610;-82
2021/08/30 03:45:49;;;;;;;7.10;5.60;;;19.70;72.40;;;;;;5034330;28;20189;-84
2021/08/30 03:48:15;;;;;;;7.28;5.47;;;19.70;72.40;;;;;;5032572;28;20186;-83
2021/08/30 03:50:45;;;;;;;7.20;5.78;;;19.70;72.40;;;;;;5034122;28;20595;-83
2021/08/30 03:53:11;;;;;;;7.70;5.85;;;19.70;72.40;;;;;;5032389;28;20634;-82
2021/08/30 03:55:36;;;;;;;7.03;5.40;;;19.70;72.50;;;;;;5034249;28;20155;-82
2021/08/30 03:58:03;;;;;;;6.80;5.50;;;19.70;72.40;;;;;;5034092;28;20573;-83
2021/08/30 04:00:28;;;;;;;6.68;5.63;;;19.70;72.50;;;;;;5050041;28;20170;-80
2021/08/30 04:02:55;;;;;;;6.75;5.13;;;19.70;72.50;;;;;;5034143;28;20171;-81
2021/08/30 04:05:23;;;;;;;7.63;5.55;;;19.70;72.40;;;;;;5034158;28;20169;-80
2021/08/30 04:07:54;;;;;;;7.47;5.43;;;19.70;72.70;;;;;;5049403;28;20252;-82
2021/08/30 04:10:20;;;;;;;6.68;5.18;;;19.70;72.60;;;;;;5048496;28;20230;-84
2021/08/30 04:12:48;;;;;;;6.80;5.38;;;19.70;72.60;;;;;;5034110;28;20206;-82
2021/08/30 04:15:13;;;;;;;7.28;5.43;;;19.70;72.70;;;;;;5032861;28;20174;-85
2021/08/30 04:17:39;;;;;;;6.55;4.93;;;19.70;72.60;;;;;;5033949;28;20212;-79
2021/08/30 04:20:07;;;;;;;6.05;5.10;;;19.60;72.50;;;;;;5032879;28;20542;-81
2021/08/30 04:22:35;;;;;;;7.22;4.90;;;19.60;72.40;;;;;;5032592;28;20175;-82
2021/08/30 04:25:03;;;;;;;6.07;4.90;;;19.60;70.90;;;;;;5032910;28;20163;-84
2021/08/30 04:27:29;;;;;;;6.25;4.80;;;19.60;70.60;;;;;;5034108;28;20245;-84
2021/08/30 04:29:59;;;;;;;5.57;4.80;;;19.60;70.20;;;;;;5032543;28;20525;-81
2021/08/30 04:32:25;;;;;;;6.50;5.10;;;19.60;70.50;;;;;;5048547;28;20218;-80
2021/08/30 04:34:51;;;;;;;5.95;4.65;;;19.60;70.10;;;;;;5049298;28;20590;-82
2021/08/30 04:37:20;;;;;;;5.97;4.68;;;19.50;69.80;;;;;;5033618;28;20155;-81
2021/08/30 04:39:46;;;;;;;5.65;4.40;;;19.50;69.70;;;;;;5048997;28;20174;-82
2021/08/30 04:42:12;;;;;;;5.80;4.57;;;19.50;69.70;;;;;;5033842;28;20159;-81
2021/08/30 04:44:38;;;;;;;6.45;4.68;;;19.50;69.30;;;;;;5032203;28;20159;-81
2021/08/30 04:47:05;;;;;;;5.50;4.40;;;19.50;69.30;;;;;;5047958;28;20166;-83
2021/08/30 04:49:31;;;;;;;6.63;4.95;;;19.50;68.90;;;;;;5048695;28;20530;-79
2021/08/30 04:52:01;;;;;;;5.75;4.30;;;19.60;68.90;;;;;;5032142;28;20270;-84
2021/08/30 04:54:27;;;;;;;5.97;4.30;;;19.50;68.50;;;;;;5048101;28;20233;-82
2021/08/30 04:56:53;;;;;;;6.68;4.45;;;19.50;68.40;;;;;;5033240;28;20241;-81
2021/08/30 04:59:19;;;;;;;6.18;4.70;;;19.50;68.50;;;;;;5049055;28;20534;-83
2021/08/30 05:01:45;;;;;;;5.57;4.22;;;19.40;68.10;;;;;;5037654;28;20587;-81
2021/08/30 05:04:11;;;;;;;6.45;4.53;;;19.50;68.10;;;;;;5037891;28;20229;-82
2021/08/30 05:06:37;;;;;;;5.60;4.38;;;19.60;67.90;;;;;;5054542;28;20163;-81
2021/08/30 05:09:02;;;;;;;5.35;4.10;;;19.50;67.60;;;;;;5037981;28;20368;-81
2021/08/30 05:11:28;;;;;;;5.70;4.05;;;19.50;67.80;;;;;;5039285;28;20661;-82
2021/08/30 05:13:59;;;;;;;5.70;4.00;;;19.50;67.60;;;;;;5039736;28;20171;-81
2021/08/30 05:16:25;;;;;;;5.78;4.60;;;19.50;67.40;;;;;;5038449;28;20186;-82
2021/08/30 05:18:56;;;;;;;4.80;3.80;;;19.50;67.60;;;;;;5039783;28;20209;-81
2021/08/30 05:21:22;;;;;;;4.65;3.78;;;19.50;67.10;;;;;;5039289;28;20189;-80
2021/08/30 05:23:52;;;;;;;6.25;4.53;;;19.50;67.20;;;;;;5057376;28;20222;-83
2021/08/30 05:26:21;;;;;;;5.28;3.97;;;19.50;67.10;;;;;;5040351;28;20189;-80
2021/08/30 05:28:47;;;;;;;5.93;4.28;;;19.60;66.90;;;;;;5057765;28;20190;-81
2021/08/30 05:31:14;;;;;;;5.20;4.45;;;19.60;67.20;;;;;;5041669;28;20221;-82
2021/08/30 05:33:44;;;;;;;4.75;3.65;;;19.50;67.10;;;;;;5041471;28;20178;-80
2021/08/30 05:36:10;;;;;;;5.03;3.90;;;19.50;67.10;;;;;;5040873;28;20229;-80
2021/08/30 05:38:36;;;;;;;5.32;4.07;;;19.50;66.80;;;;;;5041498;28;20159;-81
2021/08/30 05:41:02;;;;;;;5.53;4.20;;;19.50;66.90;;;;;;5041939;28;20158;-81
2021/08/30 05:43:28;;;;;;;4.72;3.63;;;19.50;66.60;;;;;;5042174;28;20485;-80
2021/08/30 05:45:58;;;;;;;5.63;4.15;;;19.50;66.70;;;;;;5042366;28;20163;-80
2021/08/30 05:48:24;;;;;;;5.18;3.70;;;19.50;66.70;;;;;;5040880;28;20183;-80
2021/08/30 05:50:50;;;;;;;5.97;4.30;;;19.50;66.70;;;;;;5025939;28;20687;-80
2021/08/30 05:53:19;;;;;;;4.97;3.97;;;19.50;67.00;;;;;;5043133;28;20174;-80
2021/08/30 05:55:45;;;;;;;5.10;4.05;;;19.50;66.60;;;;;;5043703;28;20152;-81
2021/08/30 05:58:11;;;;;;;4.75;3.88;;;19.50;66.70;;;;;;5044627;28;20578;-80
2021/08/30 06:00:37;;;;;;;5.45;4.05;;;19.40;67.00;;;;;;5046389;28;20159;-80
2021/08/30 06:03:03;;;;;;;5.07;4.05;;;19.50;67.00;;;;;;5046167;28;20222;-80
2021/08/30 06:05:33;;;;;;;5.72;3.95;;;19.50;66.60;;;;;;5046047;28;20159;-80
2021/08/30 06:08:05;;;;;;;5.90;4.43;;;19.50;66.60;;;;;;5060218;28;20203;-81
2021/08/30 06:10:34;;;;;;;5.78;4.25;;;19.50;66.60;;;;;;5044439;28;20701;-82
2021/08/30 06:13:00;;;;;;;6.50;4.20;;;19.50;66.90;;;;;;5044281;28;20275;-80
2021/08/30 06:15:32;;;;;;;5.75;4.13;;;19.50;67.20;;;;;;5045605;28;20195;-79
2021/08/30 06:17:58;;;;;;;7.72;3.97;;;19.50;67.40;;;;;;5044960;28;20179;-80
2021/08/30 06:20:29;;;;;;;4.97;3.83;;;19.40;67.10;;;;;;5046010;28;20497;-80
2021/08/30 06:22:59;;;;;;;5.00;4.10;;;19.50;67.20;;;;;;5043136;28;20213;-81
2021/08/30 06:25:26;;;;;;;4.82;3.90;;;19.50;67.00;;;;;;5060212;28;20182;-79
2021/08/30 06:27:56;;;;;;;4.68;4.10;;;19.50;67.00;;;;;;5046540;28;20158;-80
2021/08/30 06:30:23;;;;;;;5.45;3.83;;;19.50;67.20;;;;;;5044908;28;20182;-79
2021/08/30 06:32:52;;;;;;;4.80;3.88;;;19.40;66.90;;;;;;5061429;28;20190;-81
2021/08/30 06:35:18;;;;;;;5.15;3.83;;;19.50;66.70;;;;;;5058679;28;20179;-81
2021/08/30 06:37:44;;;;;;;4.78;3.78;;;19.50;66.90;;;;;;5040125;28;20155;-81
2021/08/30 06:40:11;;;;;;;5.40;3.90;;;19.50;67.10;;;;;;5040720;28;20157;-80
2021/08/30 06:42:41;;;;;;;4.70;3.80;;;19.50;67.10;;;;;;5042359;28;20178;-81
2021/08/30 06:45:11;;;;;;;5.50;3.92;;;19.50;67.10;;;;;;5041321;28;20190;-79
2021/08/30 06:47:39;;;;;;;4.93;3.90;;;19.60;67.20;;;;;;5045740;28;20214;-82
2021/08/30 06:50:11;;;;;;;5.90;4.00;;;19.50;66.90;;;;;;5044562;28;20514;-81
2021/08/30 06:52:38;;;;;;;4.78;3.55;;;19.50;67.40;;;;;;5042025;28;20248;-82
2021/08/30 06:55:04;;;;;;;4.93;3.75;;;19.50;67.00;;;;;;5041338;28;20151;-83
2021/08/30 06:57:33;;;;;;;5.43;4.18;;;19.60;66.90;;;;;;5059136;28;20622;-81
2021/08/30 06:59:59;;;;;;;5.90;4.15;;;19.60;66.90;;;;;;5061197;28;20201;-80
2021/08/30 07:02:26;;;;;;;6.13;4.45;;;19.60;67.40;;;;;;5042525;28;20505;-81
2021/08/30 07:04:54;;;;;;;5.95;4.28;;;19.60;67.80;;;;;;5044846;28;20213;-81
2021/08/30 07:07:27;;;;;;;9.52;4.57;;;19.60;67.90;;;;;;5043027;28;20170;-84
2021/08/30 07:09:57;;;;;;;5.35;4.32;;;19.60;67.70;;;;;;5056069;28;20284;-83
2021/08/30 07:12:28;;;;;;;6.80;4.68;;;19.60;67.60;;;;;;5040889;28;20214;-81
2021/08/30 07:14:59;;;;;;;5.97;4.50;;;19.60;67.80;;;;;;5038260;28;20182;-86
2021/08/30 07:17:28;;;;;;;6.72;4.30;;;19.70;68.00;;;;;;5053889;28;20182;-81
2021/08/30 07:19:57;;;;;;;5.30;4.10;;;19.60;67.60;;;;;;5056057;28;20641;-85
2021/08/30 07:22:22;;;;;;;5.82;4.38;;;19.60;67.80;;;;;;5052390;28;20187;-83
2021/08/30 07:24:50;;;;;;;4.95;4.03;;;19.60;67.80;;;;;;5052657;28;20258;-85
2021/08/30 07:27:16;;;;;;;5.95;4.68;;;19.60;68.00;;;;;;5051787;28;20171;-85
2021/08/30 07:29:43;;;;;;;5.82;4.38;;;19.60;67.80;;;;;;5050028;28;20250;-83
2021/08/30 07:32:13;;;;;;;5.65;4.55;;;19.60;67.90;;;;;;5049296;28;20651;-84
2021/08/30 07:34:40;;;;;;;6.15;4.75;;;19.60;67.90;;;;;;5052072;28;20677;-86
2021/08/30 07:37:07;;;;;;;6.80;4.85;;;19.60;67.90;;;;;;5034109;28;20179;-83
2021/08/30 07:39:37;;;;;;;7.13;4.65;;;19.60;68.10;;;;;;5018573;28;20186;-81
2021/08/30 07:42:04;;;;;;;6.10;4.20;;;19.50;68.10;;;;;;5035328;28;20273;-84
2021/08/30 07:44:31;;;;;;;6.38;4.65;;;19.60;68.00;;;;;;5035726;28;20643;-82
2021/08/30 07:46:58;;;;;;;6.53;4.55;;;19.50;68.10;;;;;;5020397;28;20508;-85
2021/08/30 07:49:28;;;;;;;5.90;4.63;;;19.60;68.20;;;;;;5051171;28;20193;-83
2021/08/30 07:51:55;;;;;;;5.53;4.43;;;19.50;68.10;;;;;;5051911;28;20663;-86
2021/08/30 07:54:24;;;;;;;5.45;4.30;;;19.60;68.00;;;;;;5035357;28;20258;-84
2021/08/30 07:56:51;;;;;;;5.45;4.30;;;19.60;68.20;;;;;;5050683;28;20250;-82
2021/08/30 07:59:20;;;;;;;5.63;4.50;;;19.60;68.30;;;;;;5035122;28;20203;-85
2021/08/30 08:01:47;;;;;;;7.00;4.60;;;19.60;68.30;;;;;;5018958;28;20284;-84
2021/08/30 08:04:13;;;;;;;5.30;4.18;;;19.60;68.30;;;;;;5052318;28;20181;-84
2021/08/30 08:06:43;;;;;;;7.82;4.82;;;19.60;68.30;;;;;;5055650;28;20181;-84
2021/08/30 08:09:08;;;;;;;6.63;4.45;;;19.70;68.40;;;;;;5054666;28;20280;-82
2021/08/30 08:11:34;;;;;;;7.50;4.80;;;19.70;68.40;;;;;;5057715;28;20187;-85
2021/08/30 08:14:04;;;;;;;8.13;4.50;;;19.70;68.40;;;;;;5058367;28;20170;-84
2021/08/30 08:16:30;;;;;;;12.60;4.82;;;19.70;68.70;;;;;;5040501;28;20232;-81
2021/08/30 08:18:56;;;;;;;7.75;4.72;;;19.70;68.90;;;;;;5057843;28;20186;-82
2021/08/30 08:21:23;;;;;;;5.82;4.30;;;19.70;69.00;;;;;;5039209;28;20532;-80
2021/08/30 08:23:52;;;;;;;8.57;4.45;;;19.70;69.00;;;;;;5056123;28;20186;-84
2021/08/30 08:26:18;;;;;;;8.20;4.57;;;19.80;69.20;;;;;;5053028;28;20186;-83
2021/08/30 08:28:44;;;;;;;7.00;5.00;;;19.70;69.20;;;;;;5056174;28;20221;-82
2021/08/30 08:31:10;;;;;;;11.00;4.82;;;19.80;69.30;;;;;;5057454;28;20190;-81
2021/08/30 08:33:44;;;;;;;15.32;5.65;;;19.80;69.20;;;;;;5059132;28;20154;-83
2021/08/30 08:36:11;;;;;;;12.75;5.07;;;19.70;69.00;;;;;;5042315;28;20189;-82
2021/08/30 08:38:37;;;;;;;11.15;4.72;;;19.80;69.20;;;;;;5040453;28;20269;-81
2021/08/30 08:41:03;;;;;;;10.07;4.82;;;19.70;69.30;;;;;;5057916;28;20198;-83
2021/08/30 08:43:33;;;;;;;10.80;5.35;;;19.80;69.40;;;;;;5057578;28;20637;-82
2021/08/30 08:46:01;;;;;;;11.10;5.15;;;19.90;69.50;;;;;;5072245;28;20179;-82
2021/08/30 08:48:33;;;;;;;11.30;5.00;;;19.90;69.40;;;;;;5058975;28;20539;-82
2021/08/30 08:51:05;;;;;;;7.25;4.53;;;19.80;69.60;;;;;;5023864;28;20244;-84
2021/08/30 08:53:36;;;;;;;10.57;4.90;;;19.80;69.80;;;;;;5038918;28;20733;-82
2021/08/30 08:56:02;;;;;;;16.45;5.55;;;19.90;69.90;;;;;;5053090;28;20184;-83
2021/08/30 08:58:28;;;;;;;10.55;4.60;;;19.80;70.00;;;;;;5055420;28;20156;-81
2021/08/30 09:01:04;;;;;;;10.65;5.10;;;19.90;70.20;;;;;;5040434;28;20193;-82
2021/08/30 09:03:30;;;;;;;10.02;4.88;;;19.90;69.90;;;;;;5054812;28;20184;-86
2021/08/30 09:06:04;;;;;;;14.38;4.90;;;19.90;70.00;;;;;;5052353;28;20599;-85
2021/08/30 09:08:32;;;;;;;8.20;5.03;;;19.90;70.10;;;;;;5038834;28;20162;-83
2021/08/30 09:11:02;;;;;;;8.35;4.90;;;19.90;70.10;;;;;;5036745;28;20174;-83
2021/08/30 09:13:29;;;;;;;9.68;5.65;;;19.90;70.10;;;;;;5035259;28;20178;-84
2021/08/30 09:15:59;;;;;;;7.28;4.90;;;19.90;70.20;;;;;;5038365;28;20534;-85
2021/08/30 09:18:31;;;;;;;11.48;5.25;;;19.90;70.60;;;;;;5053955;28;20253;-83
2021/08/30 09:21:09;;;;;;;10.95;5.20;;;20.00;70.30;;;;;;5042457;28;20559;-81
2021/08/30 09:23:39;;;;;;;11.73;5.30;;;20.00;70.40;;;;;;5058115;28;20184;-81
2021/08/30 09:26:16;;;;;;;11.10;5.25;;;19.90;70.40;;;;;;5055809;28;20181;-80
2021/08/30 09:28:55;;;;;;;8.25;4.72;;;19.90;70.50;;;;;;5039971;28;20178;-81
2021/08/30 09:31:24;;;;;;;9.50;5.20;;;19.90;70.90;;;;;;5023819;28;20211;-81
2021/08/30 09:33:52;;;;;;;11.82;5.00;;;20.00;70.70;;;;;;5041616;28;20170;-83
2021/08/30 09:36:23;;;;;;;7.65;5.00;;;20.00;70.70;;;;;;5040945;28;20187;-84
2021/08/30 09:38:53;;;;;;;7.18;5.07;;;20.00;70.50;;;;;;5025922;28;20649;-82
2021/08/30 09:41:19;;;;;;;7.40;4.80;;;20.00;70.50;;;;;;5042729;28;20178;-83
2021/08/30 09:43:59;;;;;;;7.57;4.93;;;19.90;70.70;;;;;;5027326;28;20179;-81
2021/08/30 09:46:30;;;;;;;10.30;5.00;;;20.00;71.10;;;;;;5044537;28;20637;-84
2021/08/30 09:49:08;;;;;;;9.50;5.30;;;20.00;70.90;;;;;;5061552;28;20178;-81
2021/08/30 09:51:40;;;;;;;8.95;5.45;;;20.00;70.90;;;;;;5044396;28;20241;-81
2021/08/30 09:54:13;;;;;;;7.50;4.70;;;20.00;70.80;;;;;;5043857;28;20205;-81
2021/08/30 09:56:44;;;;;;;7.15;4.60;;;20.10;70.80;;;;;;5038853;28;20183;-80
2021/08/30 09:59:14;;;;;;;6.93;4.90;;;20.00;70.50;;;;;;5021446;28;20240;-80
2021/08/30 10:01:45;;;;;;;8.35;4.82;;;20.00;70.80;;;;;;5018816;28;20274;-82
2021/08/30 10:04:11;;;;;;;10.80;5.18;;;20.10;70.80;;;;;;5021633;28;20217;-83
2021/08/30 10:06:38;;;;;;;9.23;5.43;;;20.10;70.70;;;;;;5039183;28;20165;-83
2021/08/30 10:09:12;;;;;;;10.40;5.13;;;20.10;70.70;;;;;;5038225;28;20232;-82
2021/08/30 10:11:38;;;;;;;8.80;5.30;;;20.20;70.40;;;;;;5022815;28;20205;-84
2021/08/30 10:14:12;;;;;;;10.35;5.20;;;20.20;70.50;;;;;;5037429;28;20250;-81
2021/08/30 10:16:38;;;;;;;9.88;5.15;;;20.10;70.60;;;;;;5037969;28;20189;-82
2021/08/30 10:19:04;;;;;;;8.38;5.40;;;20.20;70.30;;;;;;5039227;28;20163;-81
2021/08/30 10:21:30;;;;;;;9.23;5.53;;;20.20;70.30;;;;;;5040007;28;20634;-84
2021/08/30 10:24:09;;;;;;;7.53;5.32;;;20.20;70.30;;;;;;5040755;28;20228;-81
2021/08/30 10:26:38;;;;;;;7.90;5.05;;;20.30;70.30;;;;;;5040682;28;20498;-83
2021/08/30 10:29:04;;;;;;;11.02;5.20;;;20.30;70.20;;;;;;5041450;28;20242;-81
2021/08/30 10:31:34;;;;;;;8.07;5.25;;;20.20;70.00;;;;;;5037362;28;20263;-82
2021/08/30 10:34:00;;;;;;;10.48;5.00;;;20.20;70.40;;;;;;5036520;28;20186;-84
2021/08/30 10:36:31;;;;;;;9.32;5.22;;;20.20;70.30;;;;;;5038068;28;20152;-82
2021/08/30 10:39:03;;;;;;;10.45;5.38;;;20.20;70.10;;;;;;5038208;28;20232;-82
2021/08/30 10:41:33;;;;;;;7.32;5.22;;;20.20;70.10;;;;;;5038974;28;20155;-80
2021/08/30 10:44:17;;;;;;;9.15;4.72;;;20.20;70.00;;;;;;5037629;28;20554;-81
2021/08/30 10:46:46;;;;;;;8.68;5.03;;;20.20;70.00;;;;;;5038450;28;20205;-82
2021/08/30 10:49:15;;;;;;;9.05;5.03;;;20.20;69.90;;;;;;5038299;28;20170;-82
2021/08/30 10:51:46;;;;;;;9.75;5.18;;;20.20;69.80;;;;;;5037733;28;20182;-84
2021/08/30 10:54:19;;;;;;;7.85;5.22;;;20.30;69.50;;;;;;5036355;28;20254;-83
2021/08/30 10:57:00;;;;;;;8.40;5.38;;;20.30;69.30;;;;;;5036917;28;20545;-85
2021/08/30 10:59:28;;;;;;;7.32;5.45;;;20.30;69.50;;;;;;5036933;28;20163;-81
2021/08/30 11:02:00;;;;;;;6.40;5.00;;;20.30;69.40;;;;;;5037521;28;20683;-84
2021/08/30 11:04:34;;;;;;;8.77;4.63;;;20.30;69.00;;;;;;5022039;28;20186;-81
2021/08/30 11:07:00;;;;;;;9.02;5.32;;;20.40;69.00;;;;;;5041665;28;20178;-80
2021/08/30 11:09:26;;;;;;;8.10;5.40;;;20.40;68.70;;;;;;5043268;28;20226;-81
2021/08/30 11:11:52;;;;;;;8.68;5.60;;;20.40;68.90;;;;;;5040886;28;20209;-82
2021/08/30 11:14:23;;;;;;;9.50;5.18;;;20.40;68.80;;;;;;5041881;28;20179;-82
2021/08/30 11:16:54;;;;;;;10.45;5.80;;;20.30;69.80;;;;;;5039910;28;20178;-85
2021/08/30 11:19:20;;;;;;;8.07;5.50;;;20.40;68.80;;;;;;5041469;28;20196;-82
2021/08/30 11:21:54;;;;;;;9.15;5.70;;;20.40;68.70;;;;;;5039420;28;20175;-85
2021/08/30 11:24:36;;;;;;;7.85;5.30;;;20.40;68.80;;;;;;5040196;28;20190;-84
2021/08/30 11:27:11;;;;;;;9.75;5.32;;;20.40;68.30;;;;;;5042362;28;20209;-79
2021/08/30 11:29:46;;;;;;;9.73;5.22;;;20.50;68.30;;;;;;5039994;28;20677;-83
2021/08/30 11:32:16;;;;;;;7.25;5.32;;;20.50;68.20;;;;;;5039832;28;20216;-82
2021/08/30 11:34:43;;;;;;;7.07;5.18;;;20.50;68.30;;;;;;5039011;28;20804;-84
2021/08/30 11:37:10;;;;;;;7.57;5.30;;;20.50;68.40;;;;;;5039012;28;20159;-82
2021/08/30 11:39:38;;;;;;;7.45;4.97;;;20.50;68.10;;;;;;5038823;28;20159;-82
2021/08/30 11:42:07;;;;;;;8.35;5.40;;;20.50;68.30;;;;;;5040375;28;20159;-82
2021/08/30 11:44:34;;;;;;;7.25;5.75;;;20.50;68.20;;;;;;5024942;28;20151;-81
2021/08/30 11:47:09;;;;;;;6.72;5.05;;;20.50;67.90;;;;;;5043071;28;20150;-82
2021/08/30 11:49:43;;;;;;;7.85;5.32;;;20.50;68.30;;;;;;5041985;28;20182;-81
2021/08/30 11:52:10;;;;;;;8.23;5.68;;;20.50;68.00;;;;;;5042780;28;20190;-79
2021/08/30 11:54:38;;;;;;;6.70;5.25;;;20.50;68.00;;;;;;5042537;28;20170;-83
2021/08/30 11:57:11;;;;;;;7.38;5.43;;;20.50;68.20;;;;;;5043791;28;20155;-80
2021/08/30 11:59:48;;;;;;;7.43;5.70;;;20.50;68.20;;;;;;5027801;28;20277;-80
2021/08/30 12:02:15;;;;;;;7.60;5.30;;;20.50;68.00;;;;;;5045130;28;20190;-79
2021/08/30 12:04:46;;;;;;;6.78;5.15;;;20.60;68.10;;;;;;5045168;28;20194;-80
2021/08/30 12:07:15;;;;;;;6.18;5.07;;;20.50;67.60;;;;;;5044442;28;20664;-80
2021/08/30 12:09:47;;;;;;;7.15;5.43;;;20.60;67.90;;;;;;5043507;28;20214;-80
2021/08/30 12:12:28;;;;;;;10.45;5.57;;;20.60;68.20;;;;;;5046053;28;20281;-82
2021/08/30 12:15:02;;;;;;;8.18;5.32;;;20.50;68.10;;;;;;5046589;28;20183;-80
2021/08/30 12:17:35;;;;;;;9.68;5.45;;;20.50;67.90;;;;;;5045558;28;20183;-80
2021/08/30 12:20:11;;;;;;;6.30;5.10;;;20.60;68.00;;;;;;5043556;28;20645;-82
2021/08/30 12:22:39;;;;;;;8.27;5.20;;;20.70;67.90;;;;;;5024456;28;20194;-82
2021/08/30 12:25:11;;;;;;;7.22;5.32;;;20.60;67.70;;;;;;5041204;28;20230;-81
2021/08/30 12:27:39;;;;;;;6.57;5.40;;;20.60;67.80;;;;;;5039688;28;20225;-82
2021/08/30 12:30:15;;;;;;;7.03;5.28;;;20.70;68.10;;;;;;5042473;28;20200;-81
2021/08/30 12:32:49;;;;;;;7.60;5.35;;;20.60;68.00;;;;;;5024859;28;20224;-84
2021/08/30 12:35:20;;;;;;;6.85;5.45;;;20.60;67.80;;;;;;5040946;28;20150;-81
2021/08/30 12:37:50;;;;;;;7.15;5.53;;;20.60;67.80;;;;;;5039143;28;20193;-81
2021/08/30 12:40:16;;;;;;;6.80;5.28;;;20.70;67.50;;;;;;5021121;28;20233;-84
2021/08/30 12:42:43;;;;;;;6.82;5.55;;;20.70;67.10;;;;;;5038812;28;20170;-82
2021/08/30 12:45:12;;;;;;;6.57;5.70;;;20.70;67.30;;;;;;5039804;28;20155;-83
2021/08/30 12:47:38;;;;;;;7.68;5.88;;;20.80;67.20;;;;;;5039734;28;20252;-81
2021/08/30 12:50:05;;;;;;;6.57;5.30;;;20.70;67.20;;;;;;5039823;28;20163;-82
2021/08/30 12:52:31;;;;;;;8.25;5.35;;;20.70;67.00;;;;;;5039333;28;20269;-81
2021/08/30 12:54:57;;;;;;;6.70;5.07;;;20.70;66.60;;;;;;5038897;28;20176;-83